Time;durP1;ratioP1;P1;durP2;ratioP2;P2;SDS_P1;SDS_P2;PMS_P1;PMS_P2;Temp;Humidity;BMP_temperature;BMP_pressure;BME280_temperature;BME280_humidity;BME280_pressure;Samples;Min_cycle;Max_cycle;Signal;HPM_P1;HPM_P2
2022/09/17 00:01:43;;;;;;;5.38;2.15;;;;;;;9.31;100.00;97791.16;5173401;27;20433;-55
2022/09/17 00:04:09;;;;;;;11.68;2.70;;;;;;;9.16;100.00;97804.06;5173780;27;20081;-55
2022/09/17 00:06:36;;;;;;;6.50;2.13;;;;;;;9.20;100.00;97823.19;5173706;27;20428;-55
2022/09/17 00:09:05;;;;;;;11.00;2.63;;;;;;;9.10;100.00;97837.63;5173603;27;20068;-57
2022/09/17 00:11:34;;;;;;;3.50;2.25;;;;;;;9.08;100.00;97850.91;5173392;27;20552;-55
2022/09/17 00:14:03;;;;;;;4.38;2.35;;;;;;;9.01;100.00;97853.63;5173399;27;20042;-58
2022/09/17 00:16:31;;;;;;;6.00;2.08;;;;;;;9.10;100.00;97881.38;5173181;27;20141;-58
2022/09/17 00:18:58;;;;;;;3.97;2.10;;;;;;;9.02;100.00;97871.56;5173699;27;20081;-58
2022/09/17 00:21:25;;;;;;;5.32;2.15;;;;;;;9.18;100.00;97867.31;5173408;27;20052;-55
2022/09/17 00:23:55;;;;;;;8.63;2.17;;;;;;;9.19;100.00;97874.34;5173421;27;20086;-55
2022/09/17 00:26:21;;;;;;;5.63;1.65;;;;;;;9.04;100.00;97859.09;5173720;27;20505;-56
2022/09/17 00:28:50;;;;;;;5.68;2.10;;;;;;;9.10;100.00;97881.38;5173492;27;20367;-55
2022/09/17 00:31:16;;;;;;;2.58;2.13;;;;;;;9.10;100.00;97873.97;5173449;27;20042;-59
2022/09/17 00:33:43;;;;;;;5.20;2.15;;;;;;;9.09;100.00;97904.41;5173202;27;20050;-54
2022/09/17 00:36:09;;;;;;;4.40;2.10;;;;;;;8.98;100.00;97900.84;5173576;27;20047;-58
2022/09/17 00:38:35;;;;;;;5.10;2.67;;;;;;;9.14;100.00;97912.25;5173266;27;20481;-56
2022/09/17 00:41:02;;;;;;;6.43;2.38;;;;;;;9.03;100.00;97911.41;5173163;27;20042;-54
2022/09/17 00:43:41;;;;;;;2.80;1.95;;;;;;;9.09;100.00;97915.34;5173014;27;20513;-56
2022/09/17 00:46:18;;;;;;;5.45;1.95;;;;;;;9.24;100.00;97921.66;5173170;27;20051;-56
2022/09/17 00:48:44;;;;;;;13.15;2.80;;;;;;;9.07;100.00;97923.16;5173414;27;20137;-58
2022/09/17 00:51:14;;;;;;;3.95;2.10;;;;;;;9.07;100.00;97934.88;5173218;27;20118;-58
2022/09/17 00:53:41;;;;;;;12.48;2.95;;;;;;;9.17;100.00;97925.94;5173106;27;20110;-57
2022/09/17 00:56:14;;;;;;;6.90;2.22;;;;;;;9.24;100.00;97918.91;5172734;27;20060;-53
2022/09/17 00:58:40;;;;;;;5.40;1.88;;;;;;;9.06;100.00;97914.16;5172981;27;20073;-57
2022/09/17 01:01:06;;;;;;;7.97;2.25;;;;;;;9.07;100.00;97934.09;5172644;27;20057;-55
2022/09/17 01:03:33;;;;;;;4.32;2.53;;;;;;;9.05;100.00;97952.81;5172533;27;20054;-56
2022/09/17 01:06:10;;;;;;;9.88;2.80;;;;;;;8.65;100.00;97970.97;5172680;27;20046;-58
2022/09/17 01:08:47;;;;;;;5.18;2.03;;;;;;;8.84;100.00;97980.84;5172616;27;20433;-57
2022/09/17 01:11:39;;;;;;;4.75;1.90;;;;;;;9.07;100.00;97981.34;5172768;27;20505;-58
2022/09/17 01:14:21;;;;;;;10.73;2.58;;;;;;;8.84;100.00;97981.63;5171663;27;20501;-56
2022/09/17 01:16:57;;;;;;;5.53;2.20;;;;;;;8.78;100.00;97977.66;5172927;27;20409;-56
2022/09/17 01:19:53;;;;;;;4.45;2.72;;;;;;;8.57;100.00;97981.06;5172568;27;20056;-57
2022/09/17 01:22:23;;;;;;;3.55;2.38;;;;;;;8.74;100.00;97985.06;5172684;27;20051;-57
2022/09/17 01:25:11;;;;;;;8.55;2.55;;;;;;;8.68;100.00;97978.41;5172381;27;20050;-55
2022/09/17 01:28:31;;;;;;;6.78;2.50;;;;;;;8.78;100.00;97983.13;5172283;27;20053;-56
2022/09/17 01:31:26;;;;;;;7.47;3.22;;;;;;;8.70;100.00;97979.59;5067538;28;20056;-55
2022/09/17 01:34:00;;;;;;;6.45;2.90;;;;;;;8.55;100.00;97971.66;5065425;28;20053;-54
2022/09/17 01:36:39;;;;;;;4.55;2.58;;;;;;;8.62;100.00;97977.97;5067445;28;20048;-59
2022/09/17 01:39:11;;;;;;;8.55;3.05;;;;;;;8.75;100.00;97989.38;5067502;28;20048;-59
2022/09/17 01:41:44;;;;;;;9.07;3.08;;;;;;;8.78;100.00;97991.34;5067291;28;20052;-55
2022/09/17 01:44:17;;;;;;;9.13;3.92;;;;;;;8.59;100.00;97997.06;5067475;28;20053;-54
2022/09/17 01:46:49;;;;;;;8.27;4.03;;;;;;;8.74;100.00;97998.72;5067258;28;20076;-57
2022/09/17 01:49:16;;;;;;;10.07;4.30;;;;;;;8.49;100.00;97988.41;5067203;28;20052;-55
2022/09/17 01:51:47;;;;;;;10.55;3.92;;;;;;;8.43;100.00;97978.22;5067106;28;20055;-58
2022/09/17 01:54:19;;;;;;;6.13;3.75;;;;;;;8.72;100.00;97971.78;5067248;28;20164;-58
2022/09/17 01:56:54;;;;;;;5.75;3.78;;;;;;;8.41;100.00;97978.59;5067285;28;20099;-54
2022/09/17 01:59:26;;;;;;;7.00;4.05;;;;;;;8.48;100.00;97975.13;5067115;28;20400;-55
2022/09/17 02:01:58;;;;;;;6.38;3.67;;;;;;;8.60;100.00;97966.66;5124341;27;20054;-55
2022/09/17 02:04:29;;;;;;;9.52;3.67;;;;;;;8.61;100.00;97973.66;5172166;27;20042;-57
2022/09/17 02:06:59;;;;;;;8.30;4.15;;;;;;;8.52;100.00;97958.78;5171786;27;20428;-59
2022/09/17 02:09:31;;;;;;;8.25;3.97;;;;;;;8.63;100.00;97967.81;5171846;27;20047;-55
2022/09/17 02:12:02;;;;;;;11.15;4.07;;;;;;;8.56;100.00;97970.50;5171725;27;20077;-57
2022/09/17 02:14:33;;;;;;;6.43;3.85;;;;;;;8.52;100.00;97969.69;5172247;27;20100;-58
2022/09/17 02:17:05;;;;;;;5.65;3.55;;;;;;;8.43;100.00;97961.81;5171606;27;20046;-55
2022/09/17 02:19:36;;;;;;;7.38;3.92;;;;;;;8.52;100.00;97958.78;5171995;27;20493;-55
2022/09/17 02:22:11;;;;;;;7.90;3.42;;;;;;;8.43;100.00;97953.63;5171583;27;20137;-54
2022/09/17 02:24:43;;;;;;;7.05;4.13;;;;;;;8.42;100.00;97941.94;5172954;27;20054;-58
2022/09/17 02:27:16;;;;;;;12.13;3.72;;;;;;;8.45;100.00;97937.66;5175267;27;20050;-57
2022/09/17 02:29:43;;;;;;;8.18;4.15;;;;;;;8.48;100.00;97936.91;5175145;27;20050;-56
2022/09/17 02:32:11;;;;;;;9.90;4.00;;;;;;;8.46;100.00;97928.28;5175275;27;20054;-59
2022/09/17 02:34:38;;;;;;;4.53;3.33;;;;;;;8.49;100.00;97941.19;5175254;27;20046;-56
2022/09/17 02:37:05;;;;;;;9.98;4.22;;;;;;;8.49;100.00;97949.38;5175234;27;20053;-57
2022/09/17 02:39:32;;;;;;;4.85;3.33;;;;;;;8.30;100.00;97953.16;5175014;27;20046;-57
2022/09/17 02:42:08;;;;;;;8.35;3.80;;;;;;;8.32;100.00;97934.41;5175422;27;20054;-55
2022/09/17 02:44:43;;;;;;;4.20;3.30;;;;;;;8.33;100.00;97924.28;5174903;27;20053;-54
2022/09/17 02:47:29;;;;;;;6.32;3.80;;;;;;;8.16;100.00;97910.16;5175001;27;20097;-58
2022/09/17 02:50:11;;;;;;;5.88;3.47;;;;;;;8.08;100.00;97908.50;5174875;27;20486;-55
2022/09/17 02:52:51;;;;;;;6.85;4.30;;;;;;;8.30;100.00;97884.88;5174802;27;20057;-56
2022/09/17 02:55:24;;;;;;;13.27;4.68;;;;;;;8.01;100.00;97887.41;5174884;27;20050;-58
2022/09/17 02:57:58;;;;;;;6.43;3.83;;;;;;;8.17;100.00;97886.34;5174650;27;20137;-55
2022/09/17 03:00:27;;;;;;;5.70;3.55;;;;;;;8.15;100.00;97886.72;5174857;27;20050;-55
2022/09/17 03:02:58;;;;;;;8.60;3.90;;;;;;;8.08;100.00;97877.72;5174487;27;20090;-59
2022/09/17 03:05:26;;;;;;;7.53;4.00;;;;;;;8.14;100.00;97874.25;5174888;27;20057;-58
2022/09/17 03:07:55;;;;;;;7.90;4.00;;;;;;;8.33;100.00;97867.75;5174546;27;20046;-57
2022/09/17 03:10:21;;;;;;;7.63;3.95;;;;;;;8.07;100.00;97871.47;5174655;27;20042;-57
2022/09/17 03:12:47;;;;;;;5.82;3.70;;;;;;;7.85;100.00;97875.97;5174551;27;20046;-58
2022/09/17 03:15:13;;;;;;;8.27;3.85;;;;;;;8.16;100.00;97858.28;5174423;27;20092;-58
2022/09/17 03:17:40;;;;;;;10.07;4.40;;;;;;;8.24;100.00;97872.75;5174585;27;20053;-60
2022/09/17 03:20:07;;;;;;;9.75;3.90;;;;;;;8.03;100.00;97867.94;5174290;27;20060;-56
2022/09/17 03:22:34;;;;;;;9.23;3.92;;;;;;;8.06;100.00;97874.56;5174486;27;20081;-58
2022/09/17 03:25:00;;;;;;;5.38;4.22;;;;;;;8.02;100.00;97869.06;5174094;27;20062;-57
2022/09/17 03:27:27;;;;;;;13.05;3.60;;;;;;;8.07;100.00;97859.78;5174215;27;20057;-58
2022/09/17 03:29:53;;;;;;;17.48;3.90;;;;;;;8.19;100.00;97862.94;5174144;27;20064;-56
2022/09/17 03:32:19;;;;;;;6.03;3.88;;;;;;;8.00;100.00;97855.81;5174077;27;20050;-56
2022/09/17 03:34:46;;;;;;;11.80;4.40;;;;;;;8.13;100.00;97855.50;5174037;27;20085;-55
2022/09/17 03:37:13;;;;;;;7.00;4.10;;;;;;;8.19;100.00;97860.22;5173662;27;20046;-57
2022/09/17 03:39:39;;;;;;;6.63;4.07;;;;;;;8.00;100.00;97850.38;5174213;27;20053;-56
2022/09/17 03:42:06;;;;;;;8.27;3.90;;;;;;;7.87;100.00;97834.69;5173908;27;20102;-54
2022/09/17 03:44:32;;;;;;;5.47;4.18;;;;;;;7.95;100.00;97817.97;5174319;27;20050;-57
2022/09/17 03:46:58;;;;;;;14.90;4.43;;;;;;;7.90;100.00;97809.38;5173707;27;20046;-56
2022/09/17 03:49:24;;;;;;;7.85;4.38;;;;;;;8.15;100.00;97821.19;5174273;27;20078;-57
2022/09/17 03:51:50;;;;;;;7.15;3.70;;;;;;;8.02;100.00;97837.09;5173796;27;20133;-56
2022/09/17 03:54:18;;;;;;;6.45;4.13;;;;;;;8.10;100.00;97848.09;5174078;27;20474;-58
2022/09/17 03:56:44;;;;;;;7.70;4.20;;;;;;;7.97;100.00;97851.13;5173691;27;20046;-57
2022/09/17 03:59:10;;;;;;;7.57;4.28;;;;;;;7.95;100.00;97834.34;5173756;27;20049;-54
2022/09/17 04:01:36;;;;;;;8.55;4.25;;;;;;;8.07;100.00;97830.53;5173773;27;20042;-58
2022/09/17 04:04:03;;;;;;;9.25;4.53;;;;;;;7.87;100.00;97835.47;5173896;27;20164;-55
2022/09/17 04:06:29;;;;;;;6.72;4.32;;;;;;;7.97;100.00;97815.66;5174152;27;20057;-58
2022/09/17 04:08:56;;;;;;;12.30;4.55;;;;;;;8.10;100.00;97826.25;5173982;27;20046;-56
2022/09/17 04:11:23;;;;;;;8.07;4.85;;;;;;;8.30;100.00;97837.66;5173757;27;20057;-56
2022/09/17 04:13:49;;;;;;;8.43;5.00;;;;;;;8.40;100.00;97853.38;5173358;27;20061;-54
2022/09/17 04:16:15;;;;;;;9.90;4.40;;;;;;;8.18;100.00;97877.00;5173708;27;20046;-54
2022/09/17 04:18:42;;;;;;;7.07;4.63;;;;;;;8.19;100.00;97878.56;5173263;27;20046;-55
2022/09/17 04:21:08;;;;;;;10.93;4.47;;;;;;;8.21;100.00;97868.03;5173561;27;20049;-58
2022/09/17 04:23:34;;;;;;;8.45;4.90;;;;;;;8.47;100.00;97867.84;5173189;27;20061;-57
2022/09/17 04:26:00;;;;;;;6.72;4.20;;;;;;;8.96;100.00;97887.56;5173441;27;20050;-57
2022/09/17 04:28:27;;;;;;;6.35;3.90;;;;;;;9.38;100.00;97947.06;5173225;27;20061;-57
2022/09/17 04:30:53;;;;;;;10.25;4.40;;;;;;;9.15;100.00;97993.88;5173395;27;20050;-54
2022/09/17 04:33:19;;;;;;;7.97;3.80;;;;;;;9.70;100.00;98006.59;5173108;27;20496;-55
2022/09/17 04:35:46;;;;;;;5.82;4.05;;;;;;;10.13;100.00;98009.41;5173294;27;20050;-55
2022/09/17 04:38:17;;;;;;;8.50;4.07;;;;;;;10.37;100.00;97955.84;5173460;27;20050;-57
2022/09/17 04:40:45;;;;;;;6.30;3.47;;;;;;;10.82;100.00;97893.06;5173391;27;20497;-55
2022/09/17 04:43:11;;;;;;;5.50;3.88;;;;;;;11.22;100.00;97735.34;5173402;27;20489;-56
2022/09/17 04:45:38;;;;;;;12.55;3.88;;;;;;;11.06;100.00;97570.53;5173177;27;20114;-57
2022/09/17 04:48:04;;;;;;;11.10;3.45;;;;;;;11.38;100.00;97366.41;5171944;27;20133;-54
2022/09/17 04:50:31;;;;;;;6.95;3.17;;;;;;;11.93;100.00;97283.63;5173095;27;20125;-58
2022/09/17 04:52:57;;;;;;;9.95;3.40;;;;;;;12.36;100.00;97032.78;5173445;27;20046;-58
2022/09/17 04:55:24;;;;;;;6.07;2.95;;;;;;;13.37;100.00;96860.41;5172735;27;20129;-56
2022/09/17 04:57:52;;;;;;;3.67;2.58;;;;;;;13.56;100.00;96704.50;5172985;27;20042;-59
2022/09/17 05:00:20;;;;;;;10.05;3.63;;;;;;;13.75;100.00;96631.09;5172710;27;20050;-59
2022/09/17 05:02:49;;;;;;;7.40;2.83;;;;;;;13.72;100.00;96632.00;5173082;27;20081;-60
2022/09/17 05:05:16;;;;;;;7.30;3.22;;;;;;;13.92;100.00;96642.69;5173206;27;20049;-59
2022/09/17 05:07:43;;;;;;;8.23;4.25;;;;;;;14.07;100.00;96597.66;5172624;27;20042;-58
2022/09/17 05:10:11;;;;;;;5.70;2.80;;;;;;;14.29;100.00;96594.09;5172944;27;20050;-59
2022/09/17 05:12:37;;;;;;;6.18;3.70;;;;;;;14.73;100.00;96592.00;5172783;27;20458;-58
2022/09/17 05:15:05;;;;;;;7.85;3.35;;;;;;;14.45;100.00;96591.09;5172859;27;20091;-57
2022/09/17 05:17:31;;;;;;;5.07;2.80;;;;;;;13.51;100.00;96590.22;5172728;27;20528;-59
2022/09/17 05:19:58;;;;;;;6.97;3.22;;;;;;;14.78;100.00;96585.13;5172665;27;20046;-59
2022/09/17 05:22:24;;;;;;;3.42;2.33;;;;;;;15.38;100.00;96609.44;5172389;27;20052;-57
2022/09/17 05:24:51;;;;;;;6.80;2.95;;;;;;;15.34;100.00;96643.97;5172510;27;20053;-58
2022/09/17 05:27:17;;;;;;;5.80;3.80;;;;;;;15.55;100.00;96654.09;5172785;27;20050;-58
2022/09/17 05:29:44;;;;;;;5.57;3.70;;;;;;;15.96;100.00;96682.38;5172375;27;20061;-59
2022/09/17 05:32:10;;;;;;;11.40;3.78;;;;;;;15.91;100.00;96686.53;5172595;27;20485;-58
2022/09/17 05:34:36;;;;;;;7.45;3.88;;;;;;;16.19;100.00;96694.78;5172452;27;20308;-58
2022/09/17 05:37:03;;;;;;;5.32;3.08;;;;;;;16.48;100.00;96744.84;5172816;27;20042;-58
2022/09/17 05:39:29;;;;;;;4.25;3.00;;;;;;;16.45;100.00;96750.53;5172015;27;20046;-58
2022/09/17 05:41:55;;;;;;;5.60;3.60;;;;;;;16.63;100.00;96753.28;5172451;27;20145;-59
2022/09/17 05:44:24;;;;;;;6.53;3.30;;;;;;;16.24;100.00;96755.00;5172166;27;20129;-57
2022/09/17 05:46:52;;;;;;;10.55;4.00;;;;;;;16.69;100.00;96750.63;5172337;27;20095;-59
2022/09/17 05:49:18;;;;;;;4.00;3.17;;;;;;;15.66;100.00;96708.88;5171987;27;20560;-60
2022/09/17 05:51:45;;;;;;;3.72;2.88;;;;;;;15.51;100.00;96708.72;5172071;27;20050;-60
2022/09/17 05:54:12;;;;;;;10.63;3.35;;;;;;;15.35;100.00;96686.91;5172145;27;20382;-59
2022/09/17 05:56:38;;;;;;;8.07;3.13;;;;;;;14.93;100.00;96662.56;5172090;27;20053;-59
2022/09/17 05:59:04;;;;;;;13.80;3.17;;;;;;;14.40;100.00;96624.78;5172479;27;20091;-59
2022/09/17 06:01:30;;;;;;;5.32;4.32;;;;;;;14.71;100.00;96612.97;5175766;27;20046;-60
2022/09/17 06:03:57;;;;;;;8.05;3.33;;;;;;;14.04;100.00;96623.34;5175855;27;20141;-61
2022/09/17 06:06:23;;;;;;;5.18;2.70;;;;;;;15.12;100.00;96621.97;5175644;27;20081;-58
2022/09/17 06:08:49;;;;;;;4.25;2.90;;;;;;;15.02;100.00;96640.50;5175975;27;20454;-57
2022/09/17 06:11:17;;;;;;;5.50;3.60;;;;;;;15.11;100.00;96625.97;5175518;27;20054;-59
2022/09/17 06:13:43;;;;;;;8.38;3.30;;;;;;;14.73;100.00;96618.81;5175749;27;20501;-60
2022/09/17 06:16:09;;;;;;;4.38;3.10;;;;;;;14.42;100.00;96627.84;5175311;27;20511;-58
2022/09/17 06:18:35;;;;;;;8.27;3.85;;;;;;;15.21;100.00;96620.00;5175662;27;20050;-57
2022/09/17 06:21:04;;;;;;;10.80;3.10;;;;;;;16.36;100.00;96664.81;5175261;27;20520;-60
2022/09/17 06:23:34;;;;;;;4.75;3.03;;;;;;;16.91;100.00;96712.50;5175491;27;20053;-59
2022/09/17 06:26:01;;;;;;;4.95;3.95;;;;;;;16.50;100.00;96710.44;5175534;27;20098;-58
2022/09/17 06:28:28;;;;;;;8.85;2.95;;;;;;;16.82;100.00;96756.78;5175012;27;20098;-59
2022/09/17 06:30:59;;;;;;;8.32;3.60;;;;;;;16.80;100.00;96762.03;5175387;27;20098;-61
2022/09/17 06:33:25;;;;;;;4.78;2.45;;;;;;;17.81;100.00;96783.78;5174942;27;20050;-60
2022/09/17 06:35:56;;;;;;;6.07;2.83;;;;;;;17.78;100.00;96839.38;5175348;27;20140;-60
2022/09/17 06:38:22;;;;;;;7.10;2.80;;;;;;;17.79;100.00;96858.34;5175011;27;20053;-59
2022/09/17 06:40:50;;;;;;;5.25;2.83;;;;;;;17.46;100.00;96844.44;5175069;27;20064;-59
2022/09/17 06:43:16;;;;;;;5.72;2.88;;;;;;;18.98;100.00;96925.38;5175020;27;20058;-60
2022/09/17 06:45:43;;;;;;;4.35;2.72;;;;;;;19.10;100.00;96938.25;5174822;27;20048;-60
2022/09/17 06:48:09;;;;;;;7.78;3.35;;;;;;;19.25;100.00;97010.47;5174839;27;20490;-60
2022/09/17 06:50:35;;;;;;;9.98;3.00;;;;;;;19.71;100.00;97043.44;5175025;27;20485;-60
2022/09/17 06:53:02;;;;;;;5.78;2.63;;;;;;;19.19;100.00;97024.28;5174952;27;20136;-60
2022/09/17 06:55:28;;;;;;;6.28;3.10;;;;;;;17.96;100.00;96955.72;5174606;27;20118;-59
2022/09/17 06:57:58;;;;;;;5.22;2.70;;;;;;;18.90;100.00;96982.53;5174983;27;20489;-60
2022/09/17 07:00:25;;;;;;;4.88;2.95;;;;;;;19.09;100.00;96963.69;5174617;27;20497;-60
2022/09/17 07:02:56;;;;;;;3.10;2.35;;;;;;;19.14;100.00;96999.16;5174709;27;20046;-58
2022/09/17 07:05:23;;;;;;;5.15;2.03;;;;;;;20.01;100.00;97016.41;5174687;27;20082;-59
2022/09/17 07:07:49;;;;;;;5.20;3.13;;;;;;;19.90;100.00;97055.94;5174786;27;20050;-61
2022/09/17 07:10:16;;;;;;;7.80;3.00;;;;;;;20.35;100.00;97044.78;5174458;27;20042;-60
2022/09/17 07:12:43;;;;;;;4.25;2.70;;;;;;;18.16;100.00;96995.97;5173646;27;20498;-58
2022/09/17 07:15:10;;;;;;;7.97;2.42;;;;;;;18.56;100.00;96945.72;5174593;27;20046;-59
2022/09/17 07:17:38;;;;;;;5.15;3.00;;;;;;;18.43;100.00;96965.38;5174726;27;20050;-56
2022/09/17 07:20:05;;;;;;;4.72;2.70;;;;;;;18.11;100.00;96926.06;5174547;27;20042;-60
2022/09/17 07:22:32;;;;;;;7.68;3.92;;;;;;;18.17;100.00;96931.00;5174227;27;20141;-60
2022/09/17 07:24:58;;;;;;;3.97;2.83;;;;;;;18.26;100.00;96934.47;5174562;27;20136;-58
2022/09/17 07:27:27;;;;;;;5.78;2.50;;;;;;;18.73;100.00;96985.72;5174504;27;20050;-59
2022/09/17 07:29:54;;;;;;;6.80;3.63;;;;;;;18.81;100.00;96927.81;5174310;27;20133;-57
2022/09/17 07:32:20;;;;;;;3.85;2.30;;;;;;;18.05;100.00;96954.91;5174449;27;20046;-60
2022/09/17 07:34:47;;;;;;;4.45;2.45;;;;;;;19.23;100.00;96971.31;5174271;27;20332;-60
2022/09/17 07:37:14;;;;;;;7.55;2.65;;;;;;;19.56;100.00;97035.06;5174190;27;20469;-60
2022/09/17 07:39:40;;;;;;;5.40;2.30;;;;;;;19.77;100.00;97038.75;5174097;27;20050;-60
2022/09/17 07:42:07;;;;;;;5.60;2.40;;;;;;;19.46;100.00;97039.16;5174133;27;20054;-62
2022/09/17 07:44:33;;;;;;;3.60;2.50;;;;;;;19.81;100.00;97083.06;5174068;27;20161;-60
2022/09/17 07:46:59;;;;;;;5.43;2.50;;;;;;;20.95;100.00;97103.91;5174341;27;20463;-60
2022/09/17 07:49:26;;;;;;;5.68;2.33;;;;;;;21.14;100.00;97138.63;5174042;27;20150;-60
2022/09/17 07:51:53;;;;;;;7.25;2.78;;;;;;;21.55;100.00;97135.88;5174184;27;20046;-61
2022/09/17 07:54:20;;;;;;;9.00;2.55;;;;;;;21.51;100.00;97168.78;5173929;27;20056;-59
2022/09/17 07:56:47;;;;;;;6.05;2.58;;;;;;;22.36;100.00;97167.75;5174063;27;20050;-62
2022/09/17 07:59:13;;;;;;;4.25;2.75;;;;;;;21.71;100.00;97135.31;5173677;27;20057;-60
2022/09/17 08:01:39;;;;;;;5.32;2.50;;;;;;;20.74;100.00;97161.56;5173802;27;20050;-59
2022/09/17 08:04:06;;;;;;;6.45;2.70;;;;;;;21.95;100.00;97159.44;5173561;27;20050;-60
2022/09/17 08:06:36;;;;;;;5.90;2.42;;;;;;;20.81;100.00;97142.44;5173633;27;20046;-60
2022/09/17 08:09:03;;;;;;;6.50;2.60;;;;;;;21.30;100.00;97140.88;5173891;27;20386;-60
2022/09/17 08:11:30;;;;;;;5.20;2.17;;;;;;;21.00;100.00;97131.84;5173413;27;20052;-60
2022/09/17 08:13:57;;;;;;;8.85;2.88;;;;;;;20.95;100.00;97134.53;5173918;27;20519;-61
2022/09/17 08:16:24;;;;;;;3.97;2.70;;;;;;;21.01;100.00;97132.63;5173543;27;20046;-59
2022/09/17 08:18:55;;;;;;;3.75;2.15;;;;;;;21.76;100.00;97150.59;5173712;27;20520;-60
2022/09/17 08:21:21;;;;;;;8.38;2.92;;;;;;;21.55;100.00;97142.22;5173288;27;20042;-60
2022/09/17 08:23:48;;;;;;;8.13;2.38;;;;;;;20.96;100.00;97122.94;5173534;27;20061;-62
2022/09/17 08:26:16;;;;;;;4.70;2.10;;;;;;;20.86;100.00;97141.78;5173367;27;20138;-61
2022/09/17 08:28:46;;;;;;;4.07;2.50;;;;;;;21.23;100.00;97138.50;5173492;27;20417;-61
2022/09/17 08:31:14;;;;;;;3.42;2.22;;;;;;;20.78;100.00;97128.72;5173296;27;20098;-60
2022/09/17 08:33:41;;;;;;;4.13;2.47;;;;;;;19.96;100.00;97111.66;5173086;27;20053;-61
2022/09/17 08:36:10;;;;;;;5.78;1.92;;;;;;;19.84;100.00;97096.78;5173192;27;20053;-60
2022/09/17 08:38:37;;;;;;;2.47;1.58;;;;;;;18.79;100.00;97055.22;5172961;27;20580;-59
2022/09/17 08:41:16;;;;;;;4.93;2.40;;;;;;;19.11;100.00;97042.53;5173244;27;20481;-59
2022/09/17 08:43:50;;;;;;;3.03;1.60;;;;;;;18.08;100.00;97043.47;5173353;27;20054;-59
2022/09/17 08:46:16;;;;;;;2.58;1.40;;;;;;;18.45;100.00;96982.28;5173095;27;20053;-59
2022/09/17 08:48:47;;;;;;;2.83;1.45;;;;;;;19.00;100.00;97017.31;5172978;27;20046;-60
2022/09/17 08:51:26;;;;;;;2.30;1.50;;;;;;;18.18;100.00;96997.06;5173045;27;20074;-59
2022/09/17 08:54:00;;;;;;;6.03;2.30;;;;;;;18.46;100.00;96971.97;5172614;27;20057;-60
2022/09/17 08:56:27;;;;;;;1.92;1.40;;;;;;;17.92;100.00;96984.84;5172643;27;20042;-59
2022/09/17 08:59:07;;;;;;;2.50;1.40;;;;;;;18.87;100.00;97008.44;5173017;27;20046;-59
2022/09/17 09:01:40;;;;;;;4.15;1.40;;;;;;;19.28;100.00;97051.97;5172864;27;20049;-57
2022/09/17 09:04:27;;;;;;;8.13;1.50;;;;;;;19.79;100.00;97075.19;5172913;27;20156;-57
2022/09/17 09:06:57;;;;;;;4.75;1.48;;;;;;;19.91;100.00;97117.88;5172720;27;20541;-59
2022/09/17 09:09:27;;;;;;;6.07;1.65;;;;;;;20.47;100.00;97132.78;5172557;27;20261;-59
2022/09/17 09:12:01;;;;;;;4.60;1.50;;;;;;;20.44;100.00;97142.06;5172304;27;20053;-59
2022/09/17 09:14:32;;;;;;;4.88;1.60;;;;;;;20.16;100.00;97125.69;5172399;27;20046;-61
2022/09/17 09:17:03;;;;;;;4.38;1.52;;;;;;;19.48;100.00;97104.13;5172479;27;20050;-60
2022/09/17 09:19:36;;;;;;;4.93;1.75;;;;;;;20.28;100.00;97120.28;5172543;27;20057;-59
2022/09/17 09:22:04;;;;;;;3.50;1.90;;;;;;;20.53;100.00;97124.56;5172679;27;20042;-58
2022/09/17 09:24:40;;;;;;;3.35;1.30;;;;;;;20.29;100.00;97133.72;5172375;27;20129;-59
2022/09/17 09:27:17;;;;;;;5.75;1.67;;;;;;;20.60;100.00;97118.59;5172735;27;20057;-61
2022/09/17 09:29:56;;;;;;;3.70;1.42;;;;;;;20.81;100.00;97150.81;5172479;27;20410;-58
2022/09/17 09:32:37;;;;;;;2.10;1.70;;;;;;;20.70;100.00;97150.63;5172196;27;20141;-60
2022/09/17 09:35:16;;;;;;;5.82;1.70;;;;;;;19.41;100.00;97140.63;5171734;27;20049;-59
2022/09/17 09:37:45;;;;;;;4.53;1.02;;;;;;;19.33;100.00;97116.47;5172348;27;20440;-59
2022/09/17 09:40:25;;;;;;;4.68;1.10;;;;;;;19.16;100.00;97136.31;5172430;27;20086;-60
2022/09/17 09:42:54;;;;;;;6.80;1.50;;;;;;;20.31;100.00;97178.53;5172423;27;20060;-59
2022/09/17 09:45:40;;;;;;;2.28;1.15;;;;;;;20.01;100.00;97205.53;5172516;27;20053;-59
2022/09/17 09:48:16;;;;;;;5.35;1.23;;;;;;;19.22;100.00;97195.50;5172388;27;20056;-59
2022/09/17 09:50:50;;;;;;;5.03;1.13;;;;;;;20.30;100.00;97181.81;5171934;27;20114;-59
2022/09/17 09:53:29;;;;;;;6.35;1.30;;;;;;;19.56;100.00;97201.03;5172121;27;20552;-59
2022/09/17 09:56:09;;;;;;;4.18;1.85;;;;;;;19.60;100.00;97207.22;5172026;27;20050;-59
2022/09/17 09:58:37;;;;;;;9.75;2.25;;;;;;;20.51;100.00;97196.63;5172258;27;20153;-59
2022/09/17 10:01:12;;;;;;;1.30;1.00;;;;;;;20.71;100.00;97213.41;5172235;27;20157;-56
2022/09/17 10:03:42;;;;;;;5.43;1.58;;;;;;;21.38;100.00;97227.66;5171671;27;20057;-59
2022/09/17 10:06:10;;;;;;;3.60;0.95;;;;;;;20.79;100.00;97238.84;5171717;27;20049;-59
2022/09/17 10:08:38;;;;;;;1.70;1.10;;;;;;;19.71;100.00;97197.09;5172016;27;20081;-59
2022/09/17 10:11:15;;;;;;;8.32;1.33;;;;;;;19.64;100.00;97221.72;5172139;27;20050;-59
2022/09/17 10:13:42;;;;;;;5.88;1.02;;;;;;;19.44;100.00;97202.81;5171939;27;20054;-58
2022/09/17 10:16:20;;;;;;;1.85;0.93;;;;;;;18.87;100.00;97194.44;5171853;27;20098;-56
2022/09/17 10:18:47;;;;;;;5.50;1.38;;;;;;;18.24;100.00;97167.13;5171780;27;20058;-57
2022/09/17 10:21:19;;;;;;;7.93;1.60;;;;;;;18.85;100.00;97192.13;5171815;27;20429;-56
2022/09/17 10:23:46;;;;;;;2.47;0.90;;;;;;;18.60;100.00;97184.19;5171663;27;20061;-59
2022/09/17 10:26:21;;;;;;;3.58;0.90;;;;;;;18.11;100.00;97164.53;5171646;27;20055;-59
2022/09/17 10:28:51;;;;;;;5.28;1.40;;;;;;;18.42;100.00;97173.88;5171494;27;20118;-56
2022/09/17 10:31:18;;;;;;;4.68;1.17;;;;;;;18.73;100.00;97174.44;5171456;27;20060;-60
2022/09/17 10:33:54;;;;;;;5.90;1.20;;;;;;;18.47;100.00;97148.28;5171624;27;20058;-58
2022/09/17 10:36:43;;;;;;;3.17;1.02;;;;;;;19.32;100.00;97174.00;5171495;27;20102;-56
2022/09/17 10:39:33;;;;;;;4.88;1.20;;;;;;;20.09;100.00;97197.59;5171714;27;20051;-57
2022/09/17 10:42:01;;;;;;;2.70;1.20;;;;;;;19.15;100.00;97218.09;5171570;27;20042;-58
2022/09/17 10:44:29;;;;;;;3.03;1.08;;;;;;;18.57;100.00;97194.19;5171726;27;20505;-59
2022/09/17 10:47:02;;;;;;;5.95;1.63;;;;;;;18.34;100.00;97181.75;5173161;27;20402;-58
2022/09/17 10:49:37;;;;;;;1.10;0.73;;;;;;;18.12;100.00;97212.44;5174997;27;20102;-58
2022/09/17 10:52:06;;;;;;;4.93;0.90;;;;;;;18.66;100.00;97221.16;5174952;27;20048;-59
2022/09/17 10:55:11;;;;;;;7.10;1.00;;;;;;;18.99;100.00;97235.13;5174782;27;20076;-60
2022/09/17 10:58:03;;;;;;;6.07;1.52;;;;;;;18.76;100.00;97201.28;5174731;27;20053;-59
2022/09/17 11:00:38;;;;;;;3.08;0.90;;;;;;;18.96;100.00;97222.97;5174614;27;20054;-59
2022/09/17 11:03:46;;;;;;;2.85;0.90;;;;;;;18.44;100.00;97244.31;5174677;27;20058;-58
2022/09/17 11:06:41;;;;;;;5.00;1.10;;;;;;;18.01;100.00;97210.13;5175010;27;20160;-57
2022/09/17 11:09:20;;;;;;;6.68;1.20;;;;;;;17.75;100.00;97217.19;5174572;27;20046;-58
2022/09/17 11:11:58;;;;;;;8.77;1.75;;;;;;;17.57;100.00;97212.38;5174731;27;20042;-59
2022/09/17 11:14:44;;;;;;;4.07;1.05;;;;;;;17.96;100.00;97196.13;5174712;27;20098;-59
2022/09/17 11:17:17;;;;;;;2.38;0.80;;;;;;;17.79;100.00;97201.97;5174359;27;20515;-57
2022/09/17 11:19:58;;;;;;;3.43;0.97;;;;;;;17.92;100.00;97193.50;5174622;27;20068;-57
2022/09/17 11:22:36;;;;;;;3.15;1.05;;;;;;;17.82;100.00;97189.19;5174674;27;20114;-59
2022/09/17 11:25:27;;;;;;;4.28;1.27;;;;;;;17.38;100.00;97173.56;5174349;27;20533;-58
2022/09/17 11:28:09;;;;;;;10.82;1.10;;;;;;;17.72;100.00;97182.84;5174289;27;20048;-58
2022/09/17 11:30:48;;;;;;;2.97;1.20;;;;;;;17.55;100.00;97171.28;5174244;27;20469;-58
2022/09/17 11:33:27;;;;;;;5.25;1.35;;;;;;;17.61;100.00;97163.13;5174040;27;20505;-55
2022/09/17 11:35:59;;;;;;;5.53;1.98;;;;;;;18.01;100.00;97181.66;5174410;27;20583;-58
2022/09/17 11:38:29;;;;;;;1.77;0.80;;;;;;;17.99;100.00;97165.47;5173957;27;20042;-56
2022/09/17 11:41:02;;;;;;;8.10;1.20;;;;;;;17.47;100.00;97172.81;5174270;27;20050;-56
2022/09/17 11:43:32;;;;;;;4.10;1.63;;;;;;;17.58;100.00;97158.50;5173967;27;20065;-55